トロント/ピアソン の空港の天気 - METARとTAF

トロント・ピアソン国際空港 ( CYYZ / YYZ ) - カナダ オンタリオ州トロント
飛行場実況気象(Metar)
観測時間04/21 10:45 EDT (04/21 14:45 UTC)
風向・風速静穏 0m/s
視程10km以上
天気現象
全天を覆う雲 雲底高度 460m
気温9℃
湿度87%
気圧1016.3hPa
METARCYYZ 211445Z 00000KT 15SM OVC015 09/07 A3000 RMK SC8 VIS LWR E SLP163
過去の天気等 Google飛行場航空写真 Wunderground天気予報

過去48時間のMETAR

飛行場予報(TAF)
発表時間: 4/21 10:38 EDT (4/21 14:38 UTC)
予報対象時間: 21日11時 EDT ~ 22日14時 EDT
風向・風速不定 2m/s
視程10km以上
全天の8割程度の雲 雲底高度 460m
全天を覆う雲 雲底高度 910m
21日11時 EDT ~ 21日13時 EDT に一時的に
視程8050m
天気現象もや
全天の8割程度の雲 雲底高度 240m
全天を覆う雲 雲底高度 460m
21日13時 EDT から
風向・風速南 4m/s
視程10km以上
天気現象弱い霧雨
全天を覆う雲 雲底高度 610m
21日13時 EDT ~ 21日17時 EDT に一時的に
視程10km以上
天気現象弱い雨
全天の8割程度の雲 雲底高度 760m
全天を覆う雲 雲底高度 2440m
21日17時 EDT から
風向・風速南南東 4m/s
視程10km以上
全天の8割程度の雲 雲底高度 760m
21日17時 EDT ~ 21日18時 EDT に一時的に
全天の8割程度の雲 雲底高度 610m
21日19時 EDT から
風向・風速南東 3m/s
視程10km以上
全天の4割程度の雲 雲底高度 760m
全天の4割程度の雲 雲底高度 3660m
22日6時 EDT から
風向・風速北西 3m/s
視程10km以上
全天の4割程度の雲 雲底高度 610m
全天の8割程度の雲 雲底高度 2440m
22日9時 EDT ~ 22日11時 EDT に徐々に
風向・風速東北東 4m/s
TAF CYYZ 211438Z 2115/2218 VRB03KT P6SM BKN015 OVC030
TEMPO 2115/2117 5SM BR BKN008 OVC015
FM211700 18008KT P6SM -DZ OVC020
TEMPO 2117/2121 P6SM -RA BKN025 OVC080
FM212100 16007KT P6SM BKN025
TEMPO 2121/2122 BKN020
FM212300 14005KT P6SM SCT025 SCT120
FM221000 32005KT P6SM SCT020 BKN080
BECMG 2213/2215 07008KT RMK NXT FCST BY 211800Z